Terminal Aerodrome Forecast
Issued by NWS

Home | Current Version | Previous Version | Graphics & Text | Print | Product List | Glossary On
Versions: 1 2 3 4 5 6 7 8 9 10 11 12 13 14 15 16 17 18 19
000
FTUS43 KGRB 051127
TAFATW
TAF
KATW 051127Z 0512/0612 10004KT 6SM HZ SCT250
     FM051400 21007KT P6SM SCT040
     FM051900 19010G18KT P6SM SCT045
     FM052300 19008KT P6SM SKC
     FM060500 19006KT 5SM BR SKC=

USA.gov is the U.S. government's official web portal to all federal, state and local government web resources and services.